createdAt,value
2018-06-13T00:02:17.571Z,1.83
2018-06-13T00:04:45.638Z,2.87
2018-06-13T00:07:13.711Z,2.03
2018-06-13T00:09:42.088Z,5.57
2018-06-13T00:12:10.163Z,2.67
2018-06-13T00:14:38.497Z,2.43
2018-06-13T00:17:06.587Z,2.90
2018-06-13T00:19:34.777Z,4.90
2018-06-13T00:22:02.850Z,2.93
2018-06-13T00:24:30.917Z,4.60
2018-06-13T00:26:58.963Z,2.60
2018-06-13T00:29:27.071Z,1.80
2018-06-13T00:31:55.134Z,1.80
2018-06-13T00:34:23.202Z,3.67
2018-06-13T00:36:51.291Z,2.83
2018-06-13T00:39:19.354Z,3.13
2018-06-13T00:41:47.418Z,3.10
2018-06-13T00:44:15.500Z,2.53
2018-06-13T00:46:43.556Z,1.90
2018-06-13T00:49:11.623Z,1.90
2018-06-13T00:51:39.712Z,2.40
2018-06-13T00:54:07.863Z,1.57
2018-06-13T00:56:35.932Z,1.67
2018-06-13T00:59:03.994Z,4.00
2018-06-13T01:01:32.050Z,2.53
2018-06-13T01:04:00.161Z,4.10
2018-06-13T01:06:28.236Z,3.53
2018-06-13T01:08:56.590Z,2.00
2018-06-13T01:11:24.661Z,3.37
2018-06-13T01:13:52.716Z,1.80
2018-06-13T01:16:21.027Z,2.00
2018-06-13T01:18:49.323Z,2.13
2018-06-13T01:21:17.403Z,2.00
2018-06-13T01:23:45.664Z,1.57
2018-06-13T01:26:13.724Z,2.23
2018-06-13T01:28:41.779Z,2.73
2018-06-13T01:31:09.878Z,1.73
2018-06-13T01:33:38.162Z,1.93
2018-06-13T01:36:06.265Z,3.17
2018-06-13T01:38:35.126Z,2.30
2018-06-13T01:41:03.187Z,2.17
2018-06-13T01:43:31.246Z,1.70
2018-06-13T01:45:59.314Z,4.80
2018-06-13T01:48:27.379Z,1.70
2018-06-13T01:50:57.297Z,3.10
2018-06-13T01:53:25.627Z,1.43
2018-06-13T01:55:53.687Z,1.93
2018-06-13T01:58:21.770Z,1.67
2018-06-13T02:00:49.964Z,1.87
2018-06-13T02:03:18.035Z,3.80
2018-06-13T02:05:46.095Z,1.87
2018-06-13T02:08:14.151Z,2.60
2018-06-13T02:10:42.342Z,1.37
2018-06-13T02:13:10.383Z,1.70
2018-06-13T02:15:38.350Z,1.43
2018-06-13T02:18:06.406Z,3.00
2018-06-13T02:20:44.147Z,1.73
2018-06-13T02:23:12.202Z,1.60
2018-06-13T02:25:40.539Z,2.83
2018-06-13T02:28:08.927Z,1.17
2018-06-13T02:30:36.986Z,2.07
2018-06-13T02:33:05.055Z,1.23
2018-06-13T02:35:33.118Z,1.93
2018-06-13T02:38:01.178Z,2.17
2018-06-13T02:40:29.499Z,2.17
2018-06-13T02:42:57.678Z,3.63
2018-06-13T02:45:25.763Z,1.93
2018-06-13T02:47:53.930Z,1.53
2018-06-13T02:50:21.994Z,3.50
2018-06-13T02:52:50.306Z,2.07
2018-06-13T02:55:18.401Z,2.70
2018-06-13T02:57:46.491Z,1.90
2018-06-13T03:00:14.558Z,1.03
2018-06-13T03:02:42.614Z,1.30
2018-06-13T03:05:10.716Z,3.40
2018-06-13T03:07:38.794Z,1.60
2018-06-13T03:10:06.891Z,3.53
2018-06-13T03:12:35.186Z,2.03
2018-06-13T03:15:03.278Z,3.43
2018-06-13T03:17:31.334Z,3.37
2018-06-13T03:19:59.414Z,2.17
2018-06-13T03:22:27.475Z,1.80
2018-06-13T03:24:55.539Z,2.27
2018-06-13T03:27:23.592Z,2.70
2018-06-13T03:29:51.686Z,1.80
2018-06-13T03:32:19.758Z,1.30
2018-06-13T03:34:47.831Z,1.77
2018-06-13T03:37:15.882Z,1.50
2018-06-13T03:39:43.967Z,1.20
2018-06-13T03:42:12.046Z,1.63
2018-06-13T03:44:40.122Z,3.80
2018-06-13T03:47:08.178Z,3.10
2018-06-13T03:49:36.551Z,1.67
2018-06-13T03:52:04.642Z,2.37
2018-06-13T03:54:32.708Z,1.60
2018-06-13T03:57:00.776Z,1.60
2018-06-13T03:59:29.111Z,2.40
2018-06-13T04:01:57.183Z,3.30
2018-06-13T04:04:25.479Z,1.23
2018-06-13T04:06:53.871Z,1.17
2018-06-13T04:09:22.179Z,1.27
2018-06-13T04:11:50.303Z,2.10
2018-06-13T04:14:18.371Z,2.30
2018-06-13T04:16:46.455Z,0.93
2018-06-13T04:19:14.531Z,2.43
2018-06-13T04:21:42.610Z,2.50
2018-06-13T04:24:11.042Z,2.30
2018-06-13T04:26:39.106Z,3.97
2018-06-13T04:29:07.209Z,2.47
2018-06-13T04:31:35.284Z,3.17
2018-06-13T04:34:03.361Z,3.40
2018-06-13T04:36:31.460Z,6.23
2018-06-13T04:38:59.731Z,5.63
2018-06-13T04:41:27.794Z,2.93
2018-06-13T04:43:55.852Z,5.77
2018-06-13T04:46:23.925Z,4.00
2018-06-13T04:48:52.234Z,3.37
2018-06-13T04:51:20.311Z,7.03
2018-06-13T04:53:48.360Z,5.27
2018-06-13T04:56:16.451Z,8.27
2018-06-13T04:58:44.515Z,8.67
2018-06-13T05:01:12.382Z,9.10
2018-06-13T05:03:40.465Z,10.17
2018-06-13T05:06:08.539Z,7.43
2018-06-13T05:08:36.606Z,9.17
2018-06-13T05:11:04.695Z,12.07
2018-06-13T05:13:32.760Z,6.63
2018-06-13T05:16:00.851Z,12.37
2018-06-13T05:18:28.918Z,5.07
2018-06-13T05:20:57.014Z,5.00
2018-06-13T05:23:25.072Z,5.77
2018-06-13T05:25:53.146Z,6.60
2018-06-13T05:28:21.207Z,7.97
2018-06-13T05:30:49.288Z,4.90
2018-06-13T05:33:17.590Z,6.43
2018-06-13T05:35:45.767Z,8.77
2018-06-13T05:38:14.116Z,13.87
2018-06-13T05:40:42.167Z,10.00
2018-06-13T05:43:10.232Z,11.57
2018-06-13T05:45:38.308Z,14.43
2018-06-13T05:48:06.365Z,9.73
2018-06-13T05:50:34.523Z,8.93
2018-06-13T05:53:02.583Z,11.87
2018-06-13T05:55:30.666Z,12.50
2018-06-13T05:57:58.737Z,6.30
2018-06-13T06:00:26.796Z,10.83
2018-06-13T06:02:54.901Z,10.50
2018-06-13T06:05:22.944Z,8.87
2018-06-13T06:07:51.046Z,14.50
2018-06-13T06:10:19.144Z,7.67
2018-06-13T06:12:47.171Z,5.90
2018-06-13T06:15:15.531Z,8.30
2018-06-13T06:17:43.600Z,7.23
2018-06-13T06:20:11.651Z,6.50
2018-06-13T06:22:39.515Z,6.37
2018-06-13T06:25:07.574Z,4.00
2018-06-13T06:27:35.676Z,6.73
2018-06-13T06:30:03.758Z,6.17
2018-06-13T06:32:32.130Z,4.87
2018-06-13T06:35:00.435Z,4.37
2018-06-13T06:37:28.502Z,6.67
2018-06-13T06:39:56.883Z,4.60
2018-06-13T06:42:24.955Z,3.00
2018-06-13T06:44:53.029Z,6.87
2018-06-13T06:47:21.093Z,2.87
2018-06-13T06:49:49.456Z,5.10
2018-06-13T06:52:17.526Z,5.40
2018-06-13T06:54:45.615Z,4.53
2018-06-13T06:57:13.694Z,2.17
2018-06-13T06:59:42.067Z,7.20
2018-06-13T07:02:10.154Z,3.87
2018-06-13T07:04:38.206Z,3.60
2018-06-13T07:07:06.266Z,4.23
2018-06-13T07:09:34.326Z,3.87
2018-06-13T07:12:02.395Z,5.97
2018-06-13T07:14:30.670Z,5.40
2018-06-13T07:16:58.742Z,4.00
2018-06-13T07:19:26.811Z,2.63
2018-06-13T07:21:54.877Z,3.50
2018-06-13T07:24:22.930Z,5.37
2018-06-13T07:26:50.980Z,4.90
2018-06-13T07:29:19.047Z,4.40
2018-06-13T07:31:47.411Z,3.53
2018-06-13T07:34:15.525Z,3.33
2018-06-13T07:36:43.571Z,4.03
2018-06-13T07:39:11.643Z,4.60
2018-06-13T07:41:39.715Z,3.97
2018-06-13T07:44:07.774Z,4.30
2018-06-13T07:46:35.835Z,6.00
2018-06-13T07:49:03.945Z,3.83
2018-06-13T07:51:32.011Z,4.00
2018-06-13T07:54:00.070Z,5.27
2018-06-13T07:56:28.127Z,6.67
2018-06-13T07:58:56.478Z,5.40
2018-06-13T08:01:24.534Z,4.73
2018-06-13T08:03:52.607Z,3.40
2018-06-13T08:06:20.654Z,3.17
2018-06-13T08:08:48.773Z,2.90
2018-06-13T08:11:16.786Z,2.50
2018-06-13T08:13:44.841Z,3.73
2018-06-13T08:16:12.903Z,2.87
2018-06-13T08:18:40.978Z,3.07
2018-06-13T08:21:09.604Z,3.50
2018-06-13T08:23:37.666Z,3.20
2018-06-13T08:26:05.731Z,3.10
2018-06-13T08:28:34.179Z,2.87
2018-06-13T08:31:02.253Z,3.40
2018-06-13T08:33:30.321Z,1.33
2018-06-13T08:35:58.381Z,3.30
2018-06-13T08:38:26.438Z,2.87
2018-06-13T08:40:54.491Z,1.70
2018-06-13T08:43:22.822Z,3.00
2018-06-13T08:45:50.875Z,2.43
2018-06-13T08:48:18.946Z,4.83
2018-06-13T08:50:47.011Z,2.40
2018-06-13T08:53:15.072Z,3.17
2018-06-13T08:55:43.180Z,2.60
2018-06-13T08:58:11.186Z,3.30
2018-06-13T09:00:39.547Z,2.93
2018-06-13T09:03:07.619Z,3.03
2018-06-13T09:05:35.678Z,1.27
2018-06-13T09:08:03.735Z,3.90
2018-06-13T09:10:31.807Z,2.07
2018-06-13T09:12:59.860Z,2.73
2018-06-13T09:15:27.935Z,1.87
2018-06-13T09:17:55.995Z,3.00
2018-06-13T09:20:24.068Z,1.47
2018-06-13T09:22:52.185Z,2.00
2018-06-13T09:25:20.278Z,3.07
2018-06-13T09:27:48.330Z,1.87
2018-06-13T09:30:16.467Z,1.90
2018-06-13T09:32:44.843Z,3.37
2018-06-13T09:35:12.931Z,2.77
2018-06-13T09:37:41.007Z,2.00
2018-06-13T09:40:09.590Z,3.83
2018-06-13T09:42:37.657Z,2.57
2018-06-13T09:45:05.731Z,3.97
2018-06-13T09:47:33.795Z,2.43
2018-06-13T09:50:01.902Z,1.37
2018-06-13T09:52:29.915Z,3.17
2018-06-13T09:54:57.982Z,2.23
2018-06-13T09:57:26.047Z,1.73
2018-06-13T09:59:59.931Z,2.67
2018-06-13T10:02:33.420Z,2.43
2018-06-13T10:05:01.335Z,4.37
2018-06-13T10:07:29.390Z,1.40
2018-06-13T10:09:57.737Z,4.57
2018-06-13T10:12:25.590Z,1.97
2018-06-13T10:14:53.683Z,3.63
2018-06-13T10:17:21.718Z,1.60
2018-06-13T10:19:49.786Z,1.70
2018-06-13T10:22:17.905Z,2.00
2018-06-13T10:24:45.946Z,1.77
2018-06-13T10:27:19.469Z,2.80
2018-06-13T10:29:47.754Z,3.57
2018-06-13T10:32:15.910Z,1.97
2018-06-13T10:34:43.971Z,1.80
2018-06-13T10:37:12.298Z,2.77
2018-06-13T10:39:40.394Z,3.07
2018-06-13T10:42:08.450Z,2.50
2018-06-13T10:44:36.510Z,2.50
2018-06-13T10:47:04.581Z,2.53
2018-06-13T10:49:32.945Z,2.63
2018-06-13T10:52:00.991Z,2.43
2018-06-13T10:54:29.186Z,1.20
2018-06-13T10:56:57.237Z,3.27
2018-06-13T10:59:25.834Z,2.10
2018-06-13T11:01:53.886Z,4.00
2018-06-13T11:04:21.930Z,1.93
2018-06-13T11:06:49.998Z,2.97
2018-06-13T11:09:18.055Z,1.27
2018-06-13T11:11:46.110Z,1.17
2018-06-13T11:14:14.171Z,1.93
2018-06-13T11:16:42.275Z,2.40
2018-06-13T11:19:10.358Z,1.10
2018-06-13T11:21:38.423Z,3.20
2018-06-13T11:24:06.474Z,4.77
2018-06-13T11:26:34.535Z,7.27
2018-06-13T11:29:02.685Z,9.40
2018-06-13T11:31:30.807Z,30.87
2018-06-13T11:33:58.802Z,9.70
2018-06-13T11:36:26.866Z,6.43
2018-06-13T11:38:54.926Z,8.03
2018-06-13T11:41:23.017Z,5.70
2018-06-13T11:43:51.362Z,12.30
2018-06-13T11:46:19.640Z,11.70
2018-06-13T11:48:48.042Z,11.83
2018-06-13T11:51:16.111Z,9.23
2018-06-13T11:53:44.171Z,4.70
2018-06-13T11:56:12.247Z,11.03
2018-06-13T11:58:40.326Z,5.43
2018-06-13T12:01:08.717Z,7.07
2018-06-13T12:03:36.833Z,4.27
2018-06-13T12:06:04.940Z,6.97
2018-06-13T12:08:32.962Z,9.73
2018-06-13T12:11:01.041Z,10.87
2018-06-13T12:13:29.078Z,8.47
2018-06-13T12:15:57.163Z,15.50
2018-06-13T12:18:25.212Z,8.47
2018-06-13T12:20:53.282Z,10.83
2018-06-13T12:23:21.609Z,8.93
2018-06-13T12:25:49.734Z,6.07
2018-06-13T12:28:17.902Z,4.37
2018-06-13T12:30:45.959Z,7.27
2018-06-13T12:33:14.335Z,8.03
2018-06-13T12:35:42.402Z,5.53
2018-06-13T12:38:10.489Z,11.83
2018-06-13T12:40:38.586Z,7.17
2018-06-13T12:43:06.667Z,8.80
2018-06-13T12:45:34.749Z,5.73
2018-06-13T12:48:02.792Z,6.03
2018-06-13T12:50:30.870Z,8.60
2018-06-13T12:52:58.922Z,4.43
2018-06-13T12:55:27.250Z,7.97
2018-06-13T12:57:55.318Z,7.13
2018-06-13T13:00:23.388Z,8.03
2018-06-13T13:02:51.461Z,5.10
2018-06-13T13:05:19.567Z,6.03
2018-06-13T13:07:47.622Z,7.93
2018-06-13T13:10:15.751Z,3.63
2018-06-13T13:12:43.818Z,4.37
2018-06-13T13:15:11.818Z,8.03
2018-06-13T13:17:39.919Z,8.80
2018-06-13T13:20:08.128Z,5.30
2018-06-13T13:22:36.154Z,8.83
2018-06-13T13:25:04.260Z,6.83
2018-06-13T13:27:32.326Z,7.50
2018-06-13T13:30:00.405Z,11.90
2018-06-13T13:32:28.480Z,9.57
2018-06-13T13:34:56.535Z,10.00
2018-06-13T13:37:24.611Z,8.80
2018-06-13T13:39:52.770Z,13.67
2018-06-13T13:42:20.835Z,13.20
2018-06-13T13:44:48.916Z,13.63
2018-06-13T13:47:16.987Z,9.83
2018-06-13T13:49:45.385Z,12.87
2018-06-13T13:52:13.470Z,6.43
2018-06-13T13:54:41.527Z,15.67
2018-06-13T13:57:09.598Z,5.83
2018-06-13T13:59:37.663Z,5.67
2018-06-13T14:02:05.752Z,9.67
2018-06-13T14:04:33.834Z,9.07
2018-06-13T14:07:01.914Z,5.10
2018-06-13T14:09:29.970Z,5.47
2018-06-13T14:11:58.026Z,5.47
2018-06-13T14:14:26.383Z,7.53
2018-06-13T14:16:54.770Z,9.53
2018-06-13T14:19:22.904Z,7.87
2018-06-13T14:21:50.987Z,6.03
2018-06-13T14:24:19.043Z,7.70
2018-06-13T14:26:47.423Z,4.93
2018-06-13T14:29:15.284Z,6.67
2018-06-13T14:31:43.343Z,6.17
2018-06-13T14:34:11.532Z,6.27
2018-06-13T14:36:39.595Z,4.10
2018-06-13T14:39:09.239Z,5.40
2018-06-13T14:41:37.727Z,6.70
2018-06-13T14:44:05.914Z,6.23
2018-06-13T14:46:33.970Z,5.50
2018-06-13T14:49:02.158Z,5.57
2018-06-13T14:51:30.211Z,3.77
2018-06-13T14:53:59.428Z,3.50
2018-06-13T14:56:29.394Z,6.07
2018-06-13T14:58:58.532Z,4.77
2018-06-13T15:01:26.582Z,4.67
2018-06-13T15:03:54.650Z,5.30
2018-06-13T15:06:23.447Z,4.60
2018-06-13T15:08:51.538Z,3.87
2018-06-13T15:11:19.628Z,2.73
2018-06-13T15:13:47.687Z,4.97
2018-06-13T15:16:15.794Z,2.93
2018-06-13T15:18:43.858Z,4.80
2018-06-13T15:21:11.959Z,2.90
2018-06-13T15:23:40.022Z,2.70
2018-06-13T15:26:08.355Z,4.57
2018-06-13T15:28:36.414Z,4.13
2018-06-13T15:31:04.483Z,6.60
2018-06-13T15:33:32.556Z,2.53
2018-06-13T15:36:00.625Z,3.33
2018-06-13T15:38:29.243Z,4.00
2018-06-13T15:40:57.303Z,3.23
2018-06-13T15:43:25.467Z,3.93
2018-06-13T15:45:53.525Z,2.63
2018-06-13T15:48:21.599Z,5.87
2018-06-13T15:50:49.660Z,4.37
2018-06-13T15:53:17.766Z,3.17
2018-06-13T15:55:45.822Z,2.87
2018-06-13T15:58:13.899Z,3.77
2018-06-13T16:00:42.399Z,4.20
2018-06-13T16:03:10.466Z,3.03
2018-06-13T16:05:38.537Z,4.00
2018-06-13T16:08:06.997Z,5.57
2018-06-13T16:10:35.051Z,3.07
2018-06-13T16:13:03.126Z,3.53
2018-06-13T16:15:31.187Z,4.00
2018-06-13T16:17:59.471Z,4.23
2018-06-13T16:20:27.523Z,3.87
2018-06-13T16:22:55.708Z,3.97
2018-06-13T16:25:23.785Z,2.30
2018-06-13T16:27:51.862Z,4.20
2018-06-13T16:30:20.170Z,2.63
2018-06-13T16:32:48.229Z,2.90
2018-06-13T16:35:16.290Z,1.43
2018-06-13T16:37:44.342Z,4.73
2018-06-13T16:40:12.690Z,2.73
2018-06-13T16:42:40.738Z,2.07
2018-06-13T16:45:08.798Z,3.13
2018-06-13T16:47:37.153Z,3.00
2018-06-13T16:50:16.742Z,4.20
2018-06-13T16:53:54.651Z,3.47
2018-06-13T16:56:22.934Z,3.47
2018-06-13T16:58:51.731Z,3.47
2018-06-13T17:01:20.109Z,2.67
2018-06-13T17:03:48.170Z,1.83
2018-06-13T17:06:16.215Z,2.77
2018-06-13T17:08:44.281Z,3.67
2018-06-13T17:11:12.335Z,2.40
2018-06-13T17:13:40.402Z,1.10
2018-06-13T17:16:08.503Z,3.37
2018-06-13T17:18:36.581Z,3.30
2018-06-13T17:21:04.947Z,3.13
2018-06-13T17:23:33.059Z,2.67
2018-06-13T17:26:01.422Z,2.60
2018-06-13T17:28:29.479Z,2.93
2018-06-13T17:30:57.597Z,3.23
2018-06-13T17:33:25.648Z,3.63
2018-06-13T17:35:53.610Z,2.47
2018-06-13T17:38:22.041Z,2.83
2018-06-13T17:40:50.123Z,2.17
2018-06-13T17:43:18.183Z,3.50
2018-06-13T17:45:46.255Z,1.80
2018-06-13T17:48:14.310Z,3.07
2018-06-13T17:50:42.545Z,2.77
2018-06-13T17:53:10.590Z,2.30
2018-06-13T17:55:38.654Z,3.33
2018-06-13T17:58:06.708Z,1.67
2018-06-13T18:00:34.778Z,1.93
2018-06-13T18:03:02.827Z,2.50
2018-06-13T18:05:31.146Z,1.83
2018-06-13T18:07:59.206Z,2.27
2018-06-13T18:10:27.286Z,1.77
2018-06-13T18:12:55.363Z,3.00
2018-06-13T18:15:23.422Z,1.83
2018-06-13T18:17:51.490Z,2.87
2018-06-13T18:20:19.616Z,3.93
2018-06-13T18:22:47.675Z,2.70
2018-06-13T18:25:15.747Z,2.57
2018-06-13T18:27:43.799Z,1.70
2018-06-13T18:30:11.876Z,2.10
2018-06-13T18:32:39.954Z,2.30
2018-06-13T18:35:08.023Z,2.33
2018-06-13T18:37:36.079Z,1.33
2018-06-13T18:40:04.559Z,1.80
2018-06-13T18:42:32.590Z,2.07
2018-06-13T18:45:00.648Z,5.07
2018-06-13T18:47:28.714Z,2.97
2018-06-13T18:49:56.788Z,2.13
2018-06-13T18:52:24.846Z,1.30
2018-06-13T18:54:52.922Z,1.60
2018-06-13T18:57:20.976Z,3.80
2018-06-13T18:59:49.042Z,1.83
2018-06-13T19:02:17.098Z,2.13
2018-06-13T19:04:45.432Z,1.30
2018-06-13T19:07:13.487Z,1.47
2018-06-13T19:09:41.544Z,1.57
2018-06-13T19:12:09.599Z,1.53
2018-06-13T19:14:37.659Z,2.07
2018-06-13T19:17:05.749Z,2.30
2018-06-13T19:19:33.810Z,1.27
2018-06-13T19:22:01.875Z,1.23
2018-06-13T19:24:29.923Z,1.27
2018-06-13T19:26:57.994Z,2.27
2018-06-13T19:29:26.246Z,1.97
2018-06-13T19:31:54.314Z,2.87
2018-06-13T19:34:22.368Z,1.17
2018-06-13T19:36:50.435Z,1.60
2018-06-13T19:39:18.510Z,4.03
2018-06-13T19:41:46.586Z,1.73
2018-06-13T19:44:14.646Z,2.07
2018-06-13T19:46:42.693Z,2.20
2018-06-13T19:49:10.743Z,1.23
2018-06-13T19:51:38.811Z,1.40
2018-06-13T19:54:12.310Z,1.50
2018-06-13T19:56:40.375Z,1.70
2018-06-13T19:59:08.430Z,2.50
2018-06-13T20:01:36.495Z,1.87
2018-06-13T20:04:10.065Z,2.03
2018-06-13T20:06:39.281Z,1.70
2018-06-13T20:09:08.687Z,2.60
2018-06-13T20:11:36.863Z,1.57
2018-06-13T20:14:10.387Z,1.27
2018-06-13T20:16:50.887Z,3.00
2018-06-13T20:19:31.223Z,1.73
2018-06-13T20:21:59.862Z,1.70
2018-06-13T20:24:27.923Z,2.13
2018-06-13T20:27:01.603Z,1.30
2018-06-13T20:29:35.315Z,2.27
2018-06-13T20:32:03.415Z,3.07
2018-06-13T20:34:31.466Z,3.63
2018-06-13T20:36:59.598Z,4.30
2018-06-13T20:39:27.931Z,5.83
2018-06-13T20:41:55.990Z,3.53
2018-06-13T20:44:24.070Z,1.87
2018-06-13T20:46:52.118Z,2.80
2018-06-13T20:49:20.167Z,3.63
2018-06-13T20:51:48.227Z,6.13
2018-06-13T20:54:16.555Z,5.83
2018-06-13T20:56:44.606Z,5.83
2018-06-13T20:59:12.667Z,3.23
2018-06-13T21:01:40.726Z,5.20
2018-06-13T21:04:08.778Z,7.57
2018-06-13T21:06:36.839Z,5.83
2018-06-13T21:09:07.363Z,4.27
2018-06-13T21:11:35.422Z,4.33
2018-06-13T21:14:03.478Z,4.30
2018-06-13T21:16:31.422Z,2.87
2018-06-13T21:18:59.511Z,5.30
2018-06-13T21:21:27.558Z,3.53
2018-06-13T21:23:55.610Z,6.30
2018-06-13T21:26:23.666Z,6.20
2018-06-13T21:28:51.726Z,2.97
2018-06-13T21:31:19.775Z,4.13
2018-06-13T21:33:47.847Z,2.07
2018-06-13T21:36:15.894Z,1.67
2018-06-13T21:38:43.956Z,3.63
2018-06-13T21:41:12.312Z,3.00
2018-06-13T21:43:40.368Z,2.13
2018-06-13T21:46:08.415Z,2.13
2018-06-13T21:48:36.470Z,2.87
2018-06-13T21:51:04.566Z,2.70
2018-06-13T21:53:32.884Z,1.87
2018-06-13T21:56:00.935Z,2.57
2018-06-13T21:58:29.078Z,3.77
2018-06-13T22:00:57.454Z,4.90
2018-06-13T22:03:25.515Z,1.57
2018-06-13T22:05:53.575Z,3.70
2018-06-13T22:08:21.639Z,3.40
2018-06-13T22:10:49.690Z,2.23
2018-06-13T22:13:17.755Z,3.30
2018-06-13T22:15:45.815Z,2.33
2018-06-13T22:18:13.870Z,2.40
2018-06-13T22:20:41.921Z,2.77
2018-06-13T22:23:09.991Z,2.00
2018-06-13T22:25:38.050Z,2.40
2018-06-13T22:28:06.130Z,2.07
2018-06-13T22:30:34.464Z,3.33
2018-06-13T22:33:02.519Z,3.03
2018-06-13T22:35:30.882Z,3.80
2018-06-13T22:37:59.159Z,1.57
2018-06-13T22:40:27.200Z,2.57
2018-06-13T22:42:55.487Z,2.57
2018-06-13T22:45:23.539Z,3.03
2018-06-13T22:47:51.618Z,3.90
2018-06-13T22:50:19.882Z,5.27
2018-06-13T22:52:47.942Z,1.37
2018-06-13T22:55:15.982Z,1.53
2018-06-13T22:57:44.378Z,2.20
2018-06-13T23:00:14.622Z,3.03
2018-06-13T23:02:42.915Z,3.03
2018-06-13T23:05:10.970Z,4.90
2018-06-13T23:07:39.027Z,1.00
2018-06-13T23:10:07.092Z,3.10
2018-06-13T23:12:35.196Z,3.73
2018-06-13T23:15:03.283Z,1.73
2018-06-13T23:17:31.343Z,1.97
2018-06-13T23:19:59.412Z,2.10
2018-06-13T23:22:27.455Z,2.03
2018-06-13T23:24:55.522Z,4.13
2018-06-13T23:27:23.896Z,2.77
2018-06-13T23:29:51.896Z,3.67
2018-06-13T23:32:19.935Z,1.43
2018-06-13T23:34:48.011Z,3.30
2018-06-13T23:37:16.059Z,1.63
2018-06-13T23:39:44.124Z,1.33
2018-06-13T23:42:12.179Z,1.13
2018-06-13T23:44:40.239Z,1.33
2018-06-13T23:47:08.294Z,2.80
2018-06-13T23:49:36.438Z,2.33
2018-06-13T23:52:04.506Z,1.80
2018-06-13T23:54:32.578Z,3.70
2018-06-13T23:57:00.859Z,1.57
2018-06-13T23:59:28.914Z,2.47
